Etusivu
METAR-TAF:

METAR-TAF

Lentoasemat :

Tiree, Skotlanti

Leveyspiiri: 56-30N, Pituuspiiri: 006-53W, korkeus merenpinnasta: 12 m

Tämänhetkinen sää

Tämä raportti tehtiin 4 tuntia ja 25 minuuttia sitten, kello 16.50 UTC
Tuuli 7 kn luoteesta
Lämpötila 16°C
Kosteus 72%
Ilmanpaine 1012 hPa
Näkyvyys 10 km tai enemmän
Muutamia pilviä 2800 ft:n korkeudessa

METAR: EGPU 221650Z 32007KT 9999 FEW028 16/11 Q1012

Aika: 22:15 (21:15 UTC)

Sääennuste

Tämä raportti tehtiin 7 tuntia ja 19 minuuttia sitten, kello 13.56 UTC
Ennuste voimassa 22. päivästä klo 15 UTC - 22. päivään klo 18 UTC
Tuuli 7 kn pohjoisesta
Näkyvyys 10 km tai enemmän
Hajanaisia pilviä 4000 ft:n korkeudessa

TAF: EGPU 221356Z 2215/2218 35007KT 9999 SCT040

Säähavainnot ja -ennusteet yli 4000 lentoasemalta (METAR- ja TAF-raportit).

Käytössä olevat sääasemat on merkitty karttaan keltaisilla ja punaisilla pisteillä.

Aseta hiiri pisteen päälle nähdäksesi sääaseman nimen.

Klikkaa sitten nähdäksesi säähavainnot ja -ennusteet.

Kartan vaihtaminen: klikkaa mustalla rastilla varustettuja vihreitä pisteitä, niin voit zoomata sisään; viivalla varustettua vihreää pistettä, niin voit zoomata ulos tai vihreitä nuolia, niin pääset viereisille kartoille.


METAR-TAF: